Time;durP1;ratioP1;P1;durP2;ratioP2;P2;SDS_P1;SDS_P2;PMS_P1;PMS_P2;Temp;Humidity;BMP_temperature;BMP_pressure;BME280_temperature;BME280_humidity;BME280_pressure;Samples;Min_cycle;Max_cycle;Signal;HPM_P1;HPM_P2
2021/12/28 00:01:07;;;;;;;14.07;10.35;;;;;;;5.59;46.03;100294.34;1730374;82;21522;-63
2021/12/28 00:03:35;;;;;;;13.75;10.98;;;;;;;5.59;46.04;100293.52;1743326;80;21671;-63
2021/12/28 00:06:01;;;;;;;14.63;11.25;;;;;;;5.57;46.04;100289.67;1727917;81;21063;-63
2021/12/28 00:08:28;;;;;;;14.07;10.63;;;;;;;5.58;46.01;100291.83;1728033;82;21554;-63
2021/12/28 00:10:57;;;;;;;12.93;9.50;;;;;;;5.58;46.03;100297.09;1723594;82;21066;-63
2021/12/28 00:13:24;;;;;;;15.00;10.93;;;;;;;5.57;46.00;100290.99;1718284;82;21089;-63
2021/12/28 00:18:24;;;;;;;13.32;10.15;;;;;;;5.56;46.00;100287.98;1719793;81;21164;-63
2021/12/28 00:20:54;;;;;;;12.15;10.05;;;;;;;5.56;46.00;100284.52;1726335;82;21006;-64
2021/12/28 00:23:24;;;;;;;13.48;10.70;;;;;;;5.55;45.98;100282.38;1720038;81;21050;-64
2021/12/28 00:25:52;;;;;;;13.62;10.18;;;;;;;5.55;45.99;100283.69;1718968;82;21118;-64
2021/12/28 00:28:21;;;;;;;13.53;10.38;;;;;;;5.55;45.99;100281.05;1718600;82;21608;-63
2021/12/28 00:30:48;;;;;;;12.28;9.60;;;;;;;5.55;45.98;100282.38;1734745;82;21210;-63
2021/12/28 00:33:17;;;;;;;13.55;10.55;;;;;;;5.54;45.96;100283.31;1724214;80;21059;-64
2021/12/28 00:35:44;;;;;;;13.62;9.85;;;;;;;5.55;45.94;100278.42;1738737;81;21018;-62
2021/12/28 00:38:15;;;;;;;13.85;10.10;;;;;;;5.54;45.94;100279.36;1720679;82;21125;-64
2021/12/28 00:40:42;;;;;;;13.48;10.30;;;;;;;5.55;45.93;100278.91;1717865;82;21069;-63
2021/12/28 00:43:08;;;;;;;13.48;9.63;;;;;;;5.54;45.94;100267.99;1714682;82;21083;-64
2021/12/28 00:45:34;;;;;;;11.60;9.45;;;;;;;5.54;45.93;100275.90;1733463;82;21121;-63
2021/12/28 00:48:01;;;;;;;13.28;10.32;;;;;;;5.54;45.92;100273.27;1722709;82;21003;-64
2021/12/28 00:50:28;;;;;;;12.33;9.55;;;;;;;5.53;45.89;100267.16;1717874;82;21069;-64
2021/12/28 00:52:58;;;;;;;10.85;8.90;;;;;;;5.53;45.88;100267.16;1727208;82;21006;-63
2021/12/28 00:55:23;;;;;;;12.25;10.20;;;;;;;5.54;45.88;100260.09;1729114;81;21491;-63
2021/12/28 00:57:49;;;;;;;11.18;9.18;;;;;;;5.54;45.87;100265.36;1714993;82;21008;-63
2021/12/28 01:00:20;;;;;;;13.40;10.03;;;;;;;5.54;45.88;100265.36;1713841;82;21106;-64
2021/12/28 01:02:46;;;;;;;12.00;10.43;;;;;;;5.53;45.86;100263.21;1714342;82;21586;-63
2021/12/28 01:05:12;;;;;;;12.65;9.73;;;;;;;5.53;45.85;100262.38;1728130;82;21062;-63
2021/12/28 01:07:39;;;;;;;10.88;9.40;;;;;;;5.53;45.85;100271.12;1728304;81;22607;-63
2021/12/28 01:10:09;;;;;;;10.30;8.35;;;;;;;5.53;45.84;100271.12;1718150;82;21078;-63
2021/12/28 01:12:37;;;;;;;10.15;9.05;;;;;;;5.54;45.85;100266.67;1717501;82;21276;-63
2021/12/28 01:15:06;;;;;;;12.07;9.60;;;;;;;5.53;45.83;100261.06;1715716;82;21058;-64
2021/12/28 01:17:35;;;;;;;11.43;8.75;;;;;;;5.53;45.81;100260.58;1726175;81;21483;-63
2021/12/28 01:20:05;;;;;;;11.40;9.38;;;;;;;5.52;45.82;100260.20;1735246;82;21199;-65
2021/12/28 01:22:32;;;;;;;13.00;9.60;;;;;;;5.51;45.81;100263.33;1733602;82;21054;-63
2021/12/28 01:24:58;;;;;;;12.23;8.95;;;;;;;5.51;45.81;100255.42;1719135;82;21074;-63
2021/12/28 01:27:25;;;;;;;9.98;8.78;;;;;;;5.52;45.81;100264.16;1732318;82;21031;-64
2021/12/28 01:29:52;;;;;;;11.75;9.80;;;;;;;5.51;45.79;100262.50;1721927;81;21105;-63
2021/12/28 01:32:18;;;;;;;11.30;9.38;;;;;;;5.52;45.79;100265.47;1720481;82;21409;-63
2021/12/28 01:34:46;;;;;;;11.35;8.88;;;;;;;5.53;45.77;100271.61;1725767;81;21073;-64
2021/12/28 01:37:12;;;;;;;10.30;8.20;;;;;;;5.52;45.74;100256.25;1732940;81;21023;-65
2021/12/28 01:39:39;;;;;;;11.33;9.35;;;;;;;5.52;45.74;100258.89;1723269;82;21105;-63
2021/12/28 01:42:07;;;;;;;11.10;9.13;;;;;;;5.51;45.74;100252.78;1713713;82;20996;-64
2021/12/28 01:44:34;;;;;;;12.43;9.35;;;;;;;5.51;45.74;100249.32;1719067;82;21099;-63
2021/12/28 01:47:01;;;;;;;11.40;8.75;;;;;;;5.50;45.75;100252.44;1716043;82;21010;-63
2021/12/28 01:49:28;;;;;;;9.83;8.40;;;;;;;5.51;45.73;100249.32;1728772;82;21065;-64
2021/12/28 01:51:54;;;;;;;11.50;8.15;;;;;;;5.51;45.71;100250.15;1739247;80;21073;-63
2021/12/28 01:54:21;;;;;;;12.37;9.93;;;;;;;5.51;45.71;100246.69;1724909;82;21007;-62
2021/12/28 01:56:47;;;;;;;12.00;9.15;;;;;;;5.51;45.67;100251.95;1716413;82;22247;-63
2021/12/28 01:59:20;;;;;;;11.40;8.80;;;;;;;5.51;45.70;100251.47;1721404;82;21022;-64
2021/12/28 02:01:46;;;;;;;11.08;8.50;;;;;;;5.51;45.70;100250.64;1734073;82;21030;-62
2021/12/28 02:04:25;;;;;;;10.60;8.08;;;;;;;5.51;45.69;100240.09;1714283;82;21019;-64
2021/12/28 02:06:54;;;;;;;11.00;9.08;;;;;;;5.50;45.67;100242.36;1736346;80;21089;-64
2021/12/28 02:09:21;;;;;;;10.50;9.08;;;;;;;5.50;45.68;100247.17;1717237;81;21146;-63
2021/12/28 02:11:48;;;;;;;10.40;8.80;;;;;;;5.49;45.68;100257.83;1717000;82;21050;-63
2021/12/28 02:14:14;;;;;;;11.35;8.68;;;;;;;5.49;45.66;100253.87;1714322;82;21077;-63
2021/12/28 02:16:42;;;;;;;12.03;8.68;;;;;;;5.49;45.67;100249.92;1718614;82;21653;-63
2021/12/28 02:19:12;;;;;;;11.22;8.70;;;;;;;5.49;45.66;100251.24;1727238;82;21093;-62
2021/12/28 02:21:39;;;;;;;10.15;8.90;;;;;;;5.48;45.65;100249.06;1739786;80;21076;-63
2021/12/28 02:24:07;;;;;;;10.30;8.83;;;;;;;5.48;45.66;100258.78;1731598;80;21004;-63
2021/12/28 02:26:35;;;;;;;11.68;8.95;;;;;;;5.48;45.66;100257.45;1732908;80;21051;-63
2021/12/28 02:29:03;;;;;;;12.40;9.60;;;;;;;5.48;45.64;100264.05;1734672;80;21140;-63
2021/12/28 02:31:30;;;;;;;12.18;8.78;;;;;;;5.48;45.64;100258.78;1742069;80;21045;-64
2021/12/28 02:33:56;;;;;;;11.83;9.30;;;;;;;5.49;45.64;100255.20;1722653;80;21131;-64
2021/12/28 02:36:23;;;;;;;10.20;8.65;;;;;;;5.48;45.64;100253.02;1731325;80;21050;-63
2021/12/28 02:38:49;;;;;;;11.75;9.65;;;;;;;5.48;45.60;100239.02;1736557;80;21553;-63
2021/12/28 02:41:15;;;;;;;10.68;8.30;;;;;;;5.48;45.59;100237.20;1719734;82;21019;-63
2021/12/28 02:43:45;;;;;;;10.38;8.08;;;;;;;5.49;45.59;100230.16;1737612;81;21026;-63
2021/12/28 02:46:12;;;;;;;11.75;8.28;;;;;;;5.48;45.57;100227.98;1723277;82;22109;-63
2021/12/28 02:48:38;;;;;;;11.15;8.43;;;;;;;5.48;45.57;100227.98;1726100;81;21069;-63
2021/12/28 02:51:08;;;;;;;11.30;8.33;;;;;;;5.49;45.57;100224.89;1725606;82;21506;-63
2021/12/28 02:53:35;;;;;;;8.90;7.42;;;;;;;5.49;45.57;100222.25;1728496;82;21054;-63
2021/12/28 02:56:04;;;;;;;10.85;8.85;;;;;;;5.49;45.57;100228.84;1724012;82;22239;-64
2021/12/28 02:58:37;;;;;;;9.60;7.97;;;;;;;5.48;45.56;100229.30;1729503;82;22032;-63
2021/12/28 03:01:13;;;;;;;11.78;8.98;;;;;;;5.48;45.55;100225.34;1717430;81;21576;-64
2021/12/28 03:03:42;;;;;;;13.58;8.98;;;;;;;5.47;45.54;100214.47;1724874;82;21023;-63
2021/12/28 03:06:12;;;;;;;10.85;8.58;;;;;;;5.48;45.52;100219.25;1723560;82;21042;-64
2021/12/28 03:08:43;;;;;;;11.93;8.55;;;;;;;5.47;45.52;100214.47;1725161;82;21073;-65
2021/12/28 03:11:11;;;;;;;11.12;9.03;;;;;;;5.46;45.52;100212.78;1713844;82;21133;-63
2021/12/28 03:13:46;;;;;;;10.45;8.73;;;;;;;5.45;45.53;100220.83;1715871;82;21038;-64
2021/12/28 03:16:13;;;;;;;10.38;8.58;;;;;;;5.46;45.54;100215.91;1739162;82;25839;-63
2021/12/28 03:18:39;;;;;;;11.10;8.05;;;;;;;5.44;45.53;100213.38;1732443;81;21366;-63
2021/12/28 03:21:08;;;;;;;11.68;9.38;;;;;;;5.44;45.54;100207.28;1727317;81;21234;-65
2021/12/28 03:23:35;;;;;;;11.88;9.33;;;;;;;5.44;45.53;100209.43;1737823;81;21116;-63
2021/12/28 03:26:01;;;;;;;10.58;8.70;;;;;;;5.46;45.52;100211.95;1732484;81;21084;-63
2021/12/28 03:28:32;;;;;;;11.00;8.50;;;;;;;5.44;45.51;100216.02;1743430;81;21009;-63
2021/12/28 03:31:04;;;;;;;9.70;8.18;;;;;;;5.45;45.51;100206.34;1733456;81;21041;-63
2021/12/28 03:33:31;;;;;;;9.70;8.48;;;;;;;5.46;45.50;100200.09;1741198;81;21088;-62
2021/12/28 03:35:57;;;;;;;9.78;8.28;;;;;;;5.45;45.47;100203.70;1754350;80;21051;-63
2021/12/28 03:38:24;;;;;;;11.08;8.70;;;;;;;5.45;45.47;100200.58;1742381;81;21039;-63
2021/12/28 03:40:51;;;;;;;11.35;8.33;;;;;;;5.45;45.46;100203.70;1727280;81;21057;-63
2021/12/28 03:43:17;;;;;;;11.28;8.83;;;;;;;5.45;45.47;100206.34;1730796;81;21533;-63
2021/12/28 03:45:44;;;;;;;11.28;8.78;;;;;;;5.44;45.45;100206.80;1726577;81;21037;-63
2021/12/28 03:48:11;;;;;;;11.43;8.93;;;;;;;5.44;45.46;100208.11;1733216;81;21726;-62
2021/12/28 03:50:38;;;;;;;10.72;8.83;;;;;;;5.44;45.46;100207.28;1738191;81;21072;-63
2021/12/28 03:53:07;;;;;;;11.08;8.80;;;;;;;5.40;45.42;100198.78;1738555;81;20986;-63
2021/12/28 03:55:34;;;;;;;10.60;8.63;;;;;;;5.44;45.44;100212.55;1735687;81;21089;-64
2021/12/28 03:58:02;;;;;;;12.07;9.18;;;;;;;5.44;45.44;100211.23;1745304;81;21093;-63
2021/12/28 04:00:34;;;;;;;11.20;8.50;;;;;;;5.44;45.40;100196.74;1726390;81;21150;-64
2021/12/28 04:03:01;;;;;;;9.80;7.97;;;;;;;5.44;45.40;100179.13;1737976;81;21573;-64
2021/12/28 04:05:28;;;;;;;10.27;8.97;;;;;;;5.43;45.43;100177.47;1733405;81;21130;-63
2021/12/28 04:07:55;;;;;;;12.18;8.33;;;;;;;5.44;45.40;100191.47;1727455;81;21100;-64
2021/12/28 04:10:29;;;;;;;10.23;8.25;;;;;;;5.44;45.39;100190.98;1746532;81;21057;-64
2021/12/28 04:12:52;;;;;;;9.95;8.00;;;;;;;5.44;45.37;100187.03;1745218;81;22652;-62
2021/12/28 04:15:19;;;;;;;10.63;7.95;;;;;;;5.44;45.37;100188.84;1746160;81;21037;-64
2021/12/28 04:17:46;;;;;;;10.28;8.15;;;;;;;5.44;45.37;100184.89;1728045;81;21042;-64
2021/12/28 04:20:17;;;;;;;10.78;8.55;;;;;;;5.44;45.37;100186.20;1737357;81;21184;-64
2021/12/28 04:22:45;;;;;;;11.00;9.00;;;;;;;5.43;45.37;100188.02;1749084;81;21057;-62
2021/12/28 04:25:14;;;;;;;10.30;8.40;;;;;;;5.44;45.37;100183.56;1743788;81;21152;-63
2021/12/28 04:27:41;;;;;;;13.00;9.50;;;;;;;5.42;45.34;100194.23;1729241;81;20998;-64
2021/12/28 04:30:09;;;;;;;11.12;8.80;;;;;;;5.43;45.37;100193.77;1744369;81;21021;-64
2021/12/28 04:32:36;;;;;;;10.58;8.85;;;;;;;5.42;45.34;100193.40;1745602;80;21045;-63
2021/12/28 04:35:04;;;;;;;9.53;8.43;;;;;;;5.41;45.34;100194.34;1742825;81;21011;-63
2021/12/28 04:37:31;;;;;;;11.08;9.35;;;;;;;5.41;45.35;100195.66;1731078;81;21124;-64
2021/12/28 04:39:58;;;;;;;10.70;8.60;;;;;;;5.41;45.33;100190.39;1735311;81;21030;-64
2021/12/28 04:42:26;;;;;;;11.12;8.33;;;;;;;5.41;45.34;100185.13;1727132;81;22254;-64
2021/12/28 04:44:53;;;;;;;10.53;8.53;;;;;;;5.40;45.33;100194.83;1737825;81;21057;-64
2021/12/28 04:47:19;;;;;;;9.48;7.75;;;;;;;5.40;45.31;100190.88;1730753;81;21045;-63
2021/12/28 04:49:46;;;;;;;12.70;9.95;;;;;;;5.40;45.32;100190.88;1742026;81;22147;-62
2021/12/28 04:52:13;;;;;;;11.20;8.53;;;;;;;5.40;45.32;100184.78;1730716;81;21060;-64
2021/12/28 04:54:40;;;;;;;10.05;8.00;;;;;;;5.41;45.30;100187.76;1737486;81;21072;-63
2021/12/28 04:57:06;;;;;;;10.23;7.95;;;;;;;5.41;45.27;100185.98;1742853;80;21041;-64
2021/12/28 04:59:33;;;;;;;11.48;8.53;;;;;;;5.41;45.26;100195.20;1743498;81;21568;-63
2021/12/28 05:01:59;;;;;;;10.55;8.98;;;;;;;5.41;45.27;100198.30;1726623;81;21073;-63
2021/12/28 05:04:25;;;;;;;10.30;8.75;;;;;;;5.41;45.24;100204.88;1739293;81;21015;-64
2021/12/28 05:06:53;;;;;;;10.45;8.35;;;;;;;5.41;45.25;100204.88;1734573;81;21084;-62
2021/12/28 05:09:19;;;;;;;9.58;8.15;;;;;;;5.41;45.23;100204.88;1727251;81;21543;-64
2021/12/28 05:11:46;;;;;;;9.75;7.60;;;;;;;5.41;45.22;100204.88;1738009;81;21584;-63
2021/12/28 05:14:15;;;;;;;11.25;9.23;;;;;;;5.40;45.20;100194.00;1737582;81;21079;-63
2021/12/28 05:16:42;;;;;;;10.88;8.58;;;;;;;5.40;45.20;100205.86;1745428;80;21097;-64
2021/12/28 05:19:09;;;;;;;13.18;9.30;;;;;;;5.40;45.19;100204.05;1721866;82;21089;-63
2021/12/28 05:21:35;;;;;;;11.88;8.80;;;;;;;5.40;45.18;100197.47;1713968;82;21002;-63
2021/12/28 05:24:03;;;;;;;12.95;9.68;;;;;;;5.40;45.19;100195.32;1721291;82;21077;-63
2021/12/28 05:26:29;;;;;;;10.75;8.65;;;;;;;5.40;45.18;100197.95;1725711;82;21135;-63
2021/12/28 05:28:55;;;;;;;11.60;8.98;;;;;;;5.39;45.16;100189.22;1717741;81;21046;-64
2021/12/28 05:31:25;;;;;;;12.73;8.98;;;;;;;5.38;45.16;100195.44;1725663;82;21078;-64
2021/12/28 05:33:50;;;;;;;10.65;8.55;;;;;;;5.38;45.16;100195.92;1728304;81;21055;-62
2021/12/28 05:36:17;;;;;;;10.58;8.30;;;;;;;5.38;45.16;100190.66;1736624;82;21058;-63
2021/12/28 05:38:44;;;;;;;9.25;8.10;;;;;;;5.38;45.16;100188.02;1734999;82;21140;-63
2021/12/28 05:41:10;;;;;;;11.40;8.60;;;;;;;5.38;45.15;100188.84;1722645;82;21623;-63
2021/12/28 05:43:36;;;;;;;11.60;9.05;;;;;;;5.38;45.13;100190.17;1726262;80;21128;-63
2021/12/28 05:46:03;;;;;;;10.68;7.92;;;;;;;5.37;45.12;100189.83;1733671;82;21811;-63
2021/12/28 05:48:30;;;;;;;10.48;8.43;;;;;;;5.37;45.11;100187.66;1723706;81;21125;-62
2021/12/28 05:50:56;;;;;;;12.00;9.38;;;;;;;5.37;45.11;100196.42;1730573;82;21958;-64
2021/12/28 05:53:24;;;;;;;12.07;9.33;;;;;;;5.37;45.10;100192.46;1719570;82;21050;-63
2021/12/28 05:55:51;;;;;;;11.43;8.83;;;;;;;5.38;45.09;100194.12;1713597;82;21070;-64
2021/12/28 05:58:17;;;;;;;11.08;8.65;;;;;;;5.37;45.09;100188.52;1715330;80;21401;-64
2021/12/28 06:00:44;;;;;;;11.03;8.58;;;;;;;5.37;45.06;100177.11;1731011;82;21065;-61
2021/12/28 06:03:11;;;;;;;11.65;9.33;;;;;;;5.37;45.07;100182.38;1725361;82;21153;-64
2021/12/28 06:05:37;;;;;;;13.05;9.70;;;;;;;5.36;45.06;100189.45;1739018;82;20995;-63
2021/12/28 06:08:04;;;;;;;10.80;9.05;;;;;;;5.36;45.05;100190.77;1740090;82;21073;-64
2021/12/28 06:10:32;;;;;;;11.63;8.60;;;;;;;5.36;45.06;100192.58;1721955;82;21043;-64
2021/12/28 06:12:59;;;;;;;10.75;8.40;;;;;;;5.35;45.05;100197.02;1725205;81;20999;-64
2021/12/28 06:15:25;;;;;;;10.75;8.68;;;;;;;5.35;45.05;100203.61;1713700;82;21115;-63
2021/12/28 06:17:52;;;;;;;12.13;9.55;;;;;;;5.36;45.04;100207.07;1729226;82;21050;-64
2021/12/28 06:20:18;;;;;;;11.38;8.85;;;;;;;5.34;45.05;100211.14;1737537;81;21092;-63
2021/12/28 06:22:44;;;;;;;11.68;8.95;;;;;;;5.35;45.03;100219.42;1736327;81;21045;-63
2021/12/28 06:25:12;;;;;;;12.37;9.05;;;;;;;5.35;45.02;100217.23;1753151;80;21018;-64
2021/12/28 06:27:39;;;;;;;13.65;9.00;;;;;;;5.35;45.02;100214.15;1753219;81;21150;-64
2021/12/28 06:30:07;;;;;;;10.05;7.97;;;;;;;5.35;45.02;100212.83;1739169;81;21493;-63
2021/12/28 06:34:22;;;;;;;10.67;9.30;;;;;;;5.39;45.01;100210.30;1880690;76;28426;-64
2021/12/28 06:36:49;;;;;;;10.75;8.53;;;;;;;5.34;44.99;100205.04;1852803;77;21055;-64
2021/12/28 06:39:16;;;;;;;11.05;9.03;;;;;;;5.34;44.99;100217.73;1837567;77;21109;-63
2021/12/28 06:41:42;;;;;;;11.15;8.68;;;;;;;5.35;44.97;100213.28;1851866;77;21010;-64
2021/12/28 06:44:09;;;;;;;11.80;9.55;;;;;;;5.36;44.96;100221.08;1846899;77;21501;-64
2021/12/28 06:46:37;;;;;;;11.95;8.70;;;;;;;5.34;44.97;100215.09;1824954;78;21020;-64
2021/12/28 06:49:04;;;;;;;12.10;9.28;;;;;;;5.35;44.95;100222.05;1839961;77;20989;-62
2021/12/28 06:51:32;;;;;;;11.35;9.35;;;;;;;5.36;44.94;100215.80;1845185;77;21004;-64
2021/12/28 06:53:58;;;;;;;10.23;8.60;;;;;;;5.35;44.95;100210.19;1836084;77;21627;-64
2021/12/28 06:56:24;;;;;;;11.68;9.40;;;;;;;5.36;44.93;100207.07;1849152;77;21021;-64
2021/12/28 06:58:51;;;;;;;12.35;9.60;;;;;;;5.37;44.93;100208.27;1847446;77;21030;-64
2021/12/28 07:01:18;;;;;;;11.08;9.38;;;;;;;5.37;44.93;100214.00;1843605;77;21528;-62
2021/12/28 07:03:45;;;;;;;10.90;8.68;;;;;;;5.37;44.90;100214.00;1840904;77;21127;-63
2021/12/28 07:06:13;;;;;;;10.70;9.45;;;;;;;5.38;45.26;100219.64;1826948;77;21080;-61
2021/12/28 07:08:40;;;;;;;10.25;8.43;;;;;;;5.38;45.50;100211.73;1844187;77;21029;-62
2021/12/28 07:11:06;;;;;;;12.30;9.70;;;;;;;5.39;45.55;100211.62;1841166;77;21076;-62
2021/12/28 07:13:33;;;;;;;13.45;9.78;;;;;;;5.40;45.57;100212.45;1858592;77;21028;-63
2021/12/28 07:15:59;;;;;;;11.30;9.20;;;;;;;5.41;45.53;100221.55;1860265;76;21942;-63
2021/12/28 07:18:26;;;;;;;11.00;8.90;;;;;;;5.42;45.50;100217.94;1856270;77;21025;-67
2021/12/28 07:20:53;;;;;;;12.85;9.55;;;;;;;5.43;45.44;100217.48;1848117;77;21029;-62
2021/12/28 07:23:20;;;;;;;12.98;9.83;;;;;;;5.42;45.42;100206.08;1855946;77;21072;-62
2021/12/28 07:25:46;;;;;;;11.08;9.30;;;;;;;5.43;45.40;100197.23;1822356;78;20997;-62
2021/12/28 07:28:13;;;;;;;12.35;9.85;;;;;;;5.44;45.36;100196.25;1814576;78;21044;-62
2021/12/28 07:30:40;;;;;;;10.32;8.88;;;;;;;5.44;45.35;100201.52;1811237;78;21077;-61
2021/12/28 07:33:06;;;;;;;11.00;9.50;;;;;;;5.46;45.30;100197.45;1784717;78;21046;-62
2021/12/28 07:35:34;;;;;;;12.25;9.38;;;;;;;5.45;45.27;100190.04;1797325;78;21533;-62
2021/12/28 07:38:00;;;;;;;10.70;9.60;;;;;;;5.47;45.21;100188.60;1787812;79;21065;-61
2021/12/28 07:40:26;;;;;;;13.03;9.60;;;;;;;5.47;45.22;100197.83;1806207;78;21049;-62
2021/12/28 07:42:53;;;;;;;11.33;9.25;;;;;;;5.48;45.17;100190.27;1794857;78;21002;-64
2021/12/28 07:45:20;;;;;;;11.93;9.70;;;;;;;5.47;45.13;100192.06;1771865;80;21109;-62
2021/12/28 07:47:46;;;;;;;11.45;9.60;;;;;;;5.49;45.12;100182.73;1785088;80;21577;-62
2021/12/28 07:50:14;;;;;;;11.22;9.65;;;;;;;5.49;45.10;100182.73;1777713;79;21002;-62
2021/12/28 07:52:42;;;;;;;11.35;9.08;;;;;;;5.50;45.07;100171.20;1802331;79;22338;-64
2021/12/28 07:55:10;;;;;;;12.50;9.30;;;;;;;5.51;45.04;100175.53;1787639;79;21542;-64
2021/12/28 07:57:38;;;;;;;11.33;9.73;;;;;;;5.51;45.00;100173.72;1776114;79;21526;-64
2021/12/28 08:00:09;;;;;;;11.70;9.65;;;;;;;5.52;44.96;100173.23;1797824;79;21014;-63
2021/12/28 08:02:39;;;;;;;11.50;9.93;;;;;;;5.53;44.97;100174.92;1783392;79;21037;-61
2021/12/28 08:05:07;;;;;;;12.65;9.80;;;;;;;5.55;44.93;100166.41;1757245;80;23278;-62
2021/12/28 08:07:34;;;;;;;11.80;9.43;;;;;;;5.55;44.90;100169.53;1768013;80;21022;-64
2021/12/28 08:10:03;;;;;;;12.80;9.95;;;;;;;5.56;44.90;100171.19;1761174;80;21558;-61
2021/12/28 08:12:30;;;;;;;11.38;9.03;;;;;;;5.55;44.85;100170.36;1834653;77;21014;-62
2021/12/28 08:14:56;;;;;;;10.88;8.85;;;;;;;5.57;44.84;100172.87;1836455;77;21077;-63
2021/12/28 08:17:23;;;;;;;11.25;9.38;;;;;;;5.57;44.82;100167.61;1838603;77;21842;-62
2021/12/28 08:19:50;;;;;;;12.95;9.83;;;;;;;5.58;44.80;100170.13;1838990;77;21526;-65
2021/12/28 08:22:17;;;;;;;13.68;10.25;;;;;;;5.58;44.81;100152.99;1838411;77;21584;-62
2021/12/28 08:24:43;;;;;;;11.78;9.90;;;;;;;5.60;44.75;100155.48;1846671;77;21566;-61
2021/12/28 08:27:09;;;;;;;12.58;9.93;;;;;;;5.60;44.73;100155.02;1843066;77;21046;-62
2021/12/28 08:29:36;;;;;;;11.75;9.15;;;;;;;5.62;44.73;100158.82;1840122;77;21498;-63
2021/12/28 08:32:04;;;;;;;14.20;10.78;;;;;;;5.62;44.70;100153.55;1838236;77;20975;-65
2021/12/28 08:34:32;;;;;;;13.10;10.00;;;;;;;5.64;44.69;100160.84;1841594;77;20998;-63
2021/12/28 08:36:58;;;;;;;11.33;9.43;;;;;;;5.64;44.67;100151.63;1840278;77;21583;-64
2021/12/28 08:39:25;;;;;;;12.18;10.43;;;;;;;5.65;44.66;100146.72;1822410;77;21025;-63
2021/12/28 08:41:52;;;;;;;11.75;9.90;;;;;;;5.65;44.63;100146.23;1846531;77;21071;-62
2021/12/28 08:44:18;;;;;;;14.05;10.05;;;;;;;5.66;44.61;100138.69;1823133;77;21018;-63
2021/12/28 08:46:45;;;;;;;12.10;10.05;;;;;;;5.67;44.60;100144.30;1813849;77;21036;-63
2021/12/28 08:49:13;;;;;;;11.45;9.50;;;;;;;5.68;44.60;100138.08;1807932;77;21474;-66
2021/12/28 08:51:39;;;;;;;13.00;9.85;;;;;;;5.70;44.62;100140.59;1837525;77;21243;-65
2021/12/28 08:54:06;;;;;;;10.48;8.48;;;;;;;5.72;44.57;100145.27;1808899;79;21110;-64
2021/12/28 08:56:32;;;;;;;12.35;9.53;;;;;;;5.74;44.54;100134.56;1798461;79;21615;-63
2021/12/28 08:58:59;;;;;;;12.25;9.38;;;;;;;5.74;44.53;100142.02;1797763;79;21045;-64
2021/12/28 09:01:26;;;;;;;11.10;9.13;;;;;;;5.75;44.51;100141.52;1804295;79;21058;-66
2021/12/28 09:03:53;;;;;;;12.37;9.68;;;;;;;5.77;44.50;100129.05;1797968;78;21043;-64
2021/12/28 09:06:20;;;;;;;12.88;9.83;;;;;;;5.78;44.46;100133.38;1787368;78;21023;-65
2021/12/28 09:08:47;;;;;;;12.50;9.95;;;;;;;5.79;44.44;100125.31;1766347;80;21022;-64
2021/12/28 09:11:13;;;;;;;12.63;9.98;;;;;;;5.81;44.40;100125.19;1803000;78;21033;-65
2021/12/28 09:13:39;;;;;;;13.62;10.28;;;;;;;5.82;44.38;100115.02;1806296;79;21015;-67
2021/12/28 09:16:07;;;;;;;11.73;10.32;;;;;;;5.84;44.36;100113.08;1799722;77;21486;-68
2021/12/28 09:18:35;;;;;;;12.47;9.58;;;;;;;5.85;44.31;100116.05;1768394;80;21202;-63
2021/12/28 09:21:01;;;;;;;11.40;9.88;;;;;;;5.86;44.29;100115.93;1796403;79;21003;-65
2021/12/28 09:23:29;;;;;;;11.68;9.63;;;;;;;5.88;44.28;100113.17;1796797;79;21066;-66
2021/12/28 09:25:55;;;;;;;12.00;9.53;;;;;;;5.88;44.26;100102.63;1799884;79;21026;-63
2021/12/28 09:28:22;;;;;;;12.33;9.63;;;;;;;5.90;44.24;100100.69;1796998;79;21082;-65
2021/12/28 09:30:49;;;;;;;13.35;10.85;;;;;;;5.91;44.21;100099.74;1766703;80;21743;-65
2021/12/28 09:33:16;;;;;;;13.22;10.20;;;;;;;5.92;44.17;100098.77;1781593;80;21151;-64
2021/12/28 09:35:42;;;;;;;12.13;9.55;;;;;;;5.93;44.15;100093.86;1815734;78;21006;-63
2021/12/28 09:38:09;;;;;;;12.27;10.50;;;;;;;5.94;44.13;100088.91;1780583;80;21018;-64
2021/12/28 09:40:35;;;;;;;12.03;10.38;;;;;;;5.95;44.11;100089.75;1793163;78;21064;-64
2021/12/28 09:43:05;;;;;;;12.43;10.50;;;;;;;5.96;44.12;100084.37;1768832;79;21901;-65
2021/12/28 09:45:33;;;;;;;13.75;10.48;;;;;;;5.99;44.08;100089.87;1782678;78;21022;-64
2021/12/28 09:48:00;;;;;;;11.25;9.95;;;;;;;5.99;44.06;100085.45;1774469;79;21057;-64
2021/12/28 09:50:27;;;;;;;11.88;9.23;;;;;;;6.01;44.03;100082.20;1769188;80;21009;-66
2021/12/28 09:52:54;;;;;;;13.70;10.65;;;;;;;6.02;44.01;100079.89;1787669;80;21061;-65
2021/12/28 09:55:23;;;;;;;11.20;9.70;;;;;;;6.03;44.00;100080.27;1781835;79;21145;-66
2021/12/28 09:57:51;;;;;;;11.70;9.70;;;;;;;6.05;43.98;100078.33;1764693;80;21044;-65
2021/12/28 10:00:18;;;;;;;13.03;10.72;;;;;;;6.05;43.93;100074.37;1772100;80;21482;-64
2021/12/28 10:02:44;;;;;;;13.05;10.20;;;;;;;6.06;43.91;100078.66;1780316;80;21100;-65
2021/12/28 10:05:16;;;;;;;12.95;10.63;;;;;;;6.08;43.89;100074.13;1769953;80;21545;-66
2021/12/28 10:07:47;;;;;;;12.18;10.18;;;;;;;6.09;43.85;100071.00;1761974;80;21159;-67
2021/12/28 10:10:14;;;;;;;14.23;11.05;;;;;;;6.10;43.84;100075.28;1764941;80;21001;-66
2021/12/28 10:12:45;;;;;;;15.68;10.80;;;;;;;6.11;43.84;100075.66;1773393;80;21539;-65
2021/12/28 10:15:22;;;;;;;12.05;9.80;;;;;;;6.12;43.81;100069.39;1794747;78;21054;-65
2021/12/28 10:17:51;;;;;;;13.03;10.78;;;;;;;6.14;43.77;100070.59;1803232;78;21030;-65
2021/12/28 10:20:25;;;;;;;12.55;9.73;;;;;;;6.14;43.79;100064.82;1765901;80;21057;-64
2021/12/28 10:23:04;;;;;;;12.98;10.68;;;;;;;6.15;43.74;100063.04;1814804;78;20994;-63
2021/12/28 10:25:37;;;;;;;11.88;10.05;;;;;;;6.16;43.76;100066.02;1818941;78;21057;-65
2021/12/28 10:28:11;;;;;;;14.20;10.70;;;;;;;6.15;43.72;100065.19;1808542;78;21010;-63
2021/12/28 10:30:43;;;;;;;12.07;9.98;;;;;;;6.16;43.70;100060.73;1775934;80;21069;-62
2021/12/28 10:33:12;;;;;;;11.38;9.40;;;;;;;6.16;43.68;100057.64;1795625;77;21445;-63
2021/12/28 10:35:42;;;;;;;12.85;10.53;;;;;;;6.19;43.68;100056.53;1811575;77;21022;-62
2021/12/28 10:38:12;;;;;;;11.50;10.08;;;;;;;6.18;43.66;100050.89;1813771;78;21005;-62
2021/12/28 10:40:42;;;;;;;12.78;10.18;;;;;;;6.18;43.63;100053.53;1815907;78;21057;-64
2021/12/28 10:43:11;;;;;;;13.53;10.35;;;;;;;6.19;43.65;100049.94;1806383;78;21077;-63
2021/12/28 10:45:59;;;;;;;12.47;9.70;;;;;;;6.19;43.61;100052.58;1805837;79;21135;-66
2021/12/28 10:48:26;;;;;;;12.70;10.23;;;;;;;6.20;43.60;100050.27;1797996;79;21487;-63
2021/12/28 10:51:08;;;;;;;13.83;10.28;;;;;;;6.20;43.58;100052.45;1790936;79;21005;-66
2021/12/28 10:56:26;;;;;;;12.93;10.63;;;;;;;6.21;43.56;100044.87;1791432;79;21046;-64
2021/12/28 10:58:53;;;;;;;13.35;10.10;;;;;;;6.21;43.53;100041.41;1788038;79;21199;-65
2021/12/28 11:01:25;;;;;;;13.60;10.40;;;;;;;6.21;43.54;100045.36;1795400;79;21573;-65
2021/12/28 11:04:04;;;;;;;13.45;9.85;;;;;;;6.21;43.52;100037.45;1785376;79;25961;-66
2021/12/28 11:06:33;;;;;;;13.60;10.80;;;;;;;6.21;43.51;100045.36;1775977;79;20990;-64
2021/12/28 11:09:26;;;;;;;11.80;10.10;;;;;;;6.20;43.49;100039.26;1776306;79;21088;-65
2021/12/28 11:11:54;;;;;;;;;;;;;;;6.21;43.49;100032.17;1785517;79;21803;-65
2021/12/28 11:14:26;;;;;;;12.63;9.20;;;;;;;6.21;43.45;100038.27;1797166;78;20130;-65
2021/12/28 11:16:56;;;;;;;12.43;9.85;;;;;;;6.18;43.48;100037.23;1767960;80;21049;-66
2021/12/28 11:19:27;;;;;;;14.00;11.33;;;;;;;6.19;43.50;100031.47;1789360;78;21442;-67
2021/12/28 11:21:58;;;;;;;13.22;10.48;;;;;;;6.19;43.47;100032.30;1783640;79;21025;-64
2021/12/28 11:24:32;;;;;;;13.88;10.32;;;;;;;6.19;43.46;100032.30;1819745;77;21071;-65
2021/12/28 11:26:59;;;;;;;12.25;10.48;;;;;;;6.19;43.44;100030.15;1807860;78;21020;-63
2021/12/28 11:29:35;;;;;;;12.68;9.70;;;;;;;6.20;43.44;100035.30;1818604;78;21068;-64
2021/12/28 11:32:05;;;;;;;12.23;10.13;;;;;;;6.20;43.42;100020.79;1820565;78;21002;-64
2021/12/28 11:34:34;;;;;;;12.50;10.35;;;;;;;6.21;43.43;100017.16;1817051;78;21541;-65